Lexington, KY (40503)

5:50 AM EST on February 12, 2016 (GMT -0500)
Wilson Downing Rd | | Change Station
CLOSE
Current Station
Personal Weather Station
Location: Lexington, KY
Elevation: 935 ft
Nearby Weather Stations
Active Advisory: Special Statement

Elev 935 ft 37.98 °N, 84.50 °W | Updated 12 minutes ago

Overcast
Overcast
23.2 °F
Feels Like 23 °F
N
0.0
Wind Variable Wind from North

Today
High -- | Low -- °F
--% Chance of Precip.
Yesterday
High -- | Low -- °F
Precip. -- in
Pressure 30.19 in
Visibility 10.0 miles
Clouds Overcast 7000 ft
Windchill 23 °F
Dew Point 12 °F
Humidity 62%
Rainfall Not available.
Snow Depth Not available.
7:32 AM 6:13 PM
Waxing Crescent, 19% visible
METAR KLEX 120954Z 11005KT 10SM OVC070 M04/M11 A3016 RMK AO2 SLP224 T10441106
Pressure 30.19 in
Visibility 10.0 miles
Clouds Overcast 7000 ft
Windchill 23 °F
Dew Point 12 °F
Humidity 62%
Rainfall Not available.
Snow Depth Not available.
7:32 AM 6:13 PM
Waxing Crescent, 19% visible
METAR KLEX 120954Z 11005KT 10SM OVC070 M04/M11 A3016 RMK AO2 SLP224 T10441106

10-Day Weather Forecast

Almanac

Astronomy

Feb. 12, 2016 Rise Set
Actual Time
Civil Twilight
Nautical Twilight
Astronomical Twilight
Moon
Length of Visible Light
Length of Day
Tomorrow will be .
, % of the Moon is Illuminated

Today's Extremes

State Highs State Lows

Community

WunderPhotos

Upload Photos

1,892,289 photos uploaded!

WunderBlog® & News

Nearby

Air Quality

  Air Quality AQ Index Pollutant
Not available.

Snow Depth

Station Depth Elevation

Earthquake Activity

City Distance Mag. Time & Date
Minimum magnitude displayed is 2.5.

Coastal Water Temperatures

Place Temperature

Stations

Nearby Weather Stations

Station Location Temp. Windchill Dew Point Humidity Wind Precip. Elev Updated Type
                   

Watches & Warnings

Special Statement
Issued: 3:03 AM CST Feb. 12, 2016 – National Weather Service

... Light snow around the Friday morning commute...

Light snow will overspread the region around dawn this morning.
With temperatures in the lower to middle 20s... all snow will stick
to untreated surfaces. Although snow accumulations are expected to
be a half of an inch or less... a few slick spots are possible
during the morning commute. Motorists should use caution... slow
down... and allow extra time to travel to work this morning.


Mj